Time;durP1;ratioP1;P1;durP2;ratioP2;P2;SDS_P1;SDS_P2;PMS_P1;PMS_P2;Temp;Humidity;BMP_temperature;BMP_pressure;BME280_temperature;BME280_humidity;BME280_pressure;Samples;Min_cycle;Max_cycle;Signal;HPM_P1;HPM_P2
2023/12/20 00:01:45;;;;;;;12.05;2.45;;;4.10;99.90;;;;;;4843231;29;20034;-76
2023/12/20 00:04:11;;;;;;;6.38;1.63;;;4.20;99.90;;;;;;4845513;29;20052;-78
2023/12/20 00:06:37;;;;;;;7.35;2.28;;;4.20;99.90;;;;;;4840168;29;20041;-78
2023/12/20 00:09:02;;;;;;;10.90;1.95;;;4.20;99.90;;;;;;4842821;29;20479;-78
2023/12/20 00:11:28;;;;;;;6.20;1.80;;;4.20;99.90;;;;;;4842867;29;20482;-77
2023/12/20 00:13:53;;;;;;;10.65;2.40;;;4.30;99.90;;;;;;4847752;29;20509;-77
2023/12/20 00:16:19;;;;;;;9.65;2.50;;;4.30;99.90;;;;;;4844430;29;20026;-77
2023/12/20 00:18:45;;;;;;;11.15;2.40;;;4.40;99.90;;;;;;4845038;29;20511;-77
2023/12/20 00:21:10;;;;;;;8.00;2.20;;;4.40;99.90;;;;;;4850334;29;20406;-77
2023/12/20 00:23:36;;;;;;;5.45;1.77;;;4.40;99.90;;;;;;4844298;29;20049;-77
2023/12/20 00:26:02;;;;;;;10.32;2.35;;;4.50;99.90;;;;;;4840891;29;20041;-77
2023/12/20 00:28:27;;;;;;;9.70;2.25;;;4.50;99.90;;;;;;4837811;29;20041;-77
2023/12/20 00:30:53;;;;;;;8.20;1.90;;;4.50;99.90;;;;;;4840443;29;20046;-77
2023/12/20 00:33:19;;;;;;;14.25;3.03;;;4.50;99.90;;;;;;4843491;29;20181;-77
2023/12/20 00:35:44;;;;;;;7.65;1.90;;;4.50;99.90;;;;;;4846153;29;20053;-76
2023/12/20 00:38:11;;;;;;;10.98;2.00;;;4.50;99.90;;;;;;4845649;29;20038;-77
2023/12/20 00:40:37;;;;;;;9.25;2.10;;;4.60;99.90;;;;;;4839760;29;20518;-76
2023/12/20 00:43:03;;;;;;;8.40;1.60;;;4.60;99.90;;;;;;4846692;29;20479;-76
2023/12/20 00:45:28;;;;;;;6.47;1.77;;;4.60;99.90;;;;;;4841284;29;20071;-77
2023/12/20 00:47:54;;;;;;;7.70;1.70;;;4.60;99.90;;;;;;4844183;29;20034;-77
2023/12/20 00:50:21;;;;;;;7.38;1.83;;;4.60;99.90;;;;;;4843486;29;20039;-78
2023/12/20 00:52:47;;;;;;;9.50;1.70;;;4.60;99.90;;;;;;4841827;29;20106;-78
2023/12/20 00:55:13;;;;;;;7.55;1.50;;;4.60;99.90;;;;;;4839618;29;20490;-77
2023/12/20 00:57:39;;;;;;;10.30;2.40;;;4.70;99.90;;;;;;4841999;29;20033;-77
2023/12/20 01:00:05;;;;;;;5.00;1.50;;;4.60;99.90;;;;;;4840649;29;20510;-76
2023/12/20 01:02:31;;;;;;;9.48;1.92;;;4.60;99.90;;;;;;4842700;29;20045;-77
2023/12/20 01:04:57;;;;;;;7.30;1.95;;;4.60;99.90;;;;;;4842842;29;20046;-76
2023/12/20 01:07:22;;;;;;;13.60;2.53;;;4.60;99.90;;;;;;4839395;29;20048;-77
2023/12/20 01:09:48;;;;;;;7.55;1.90;;;4.60;99.90;;;;;;4846938;29;20441;-77
2023/12/20 01:12:14;;;;;;;8.15;2.45;;;4.60;99.90;;;;;;4841438;29;20086;-77
2023/12/20 01:14:39;;;;;;;8.23;1.60;;;4.50;99.90;;;;;;4847729;29;20040;-77
2023/12/20 01:17:05;;;;;;;11.02;2.35;;;4.40;99.90;;;;;;4842531;29;20433;-77
2023/12/20 01:19:31;;;;;;;14.02;1.90;;;4.40;99.90;;;;;;4844806;29;20093;-78
2023/12/20 01:21:56;;;;;;;6.72;1.75;;;4.30;99.90;;;;;;4840018;29;20164;-76
2023/12/20 01:24:22;;;;;;;11.63;1.90;;;4.30;99.90;;;;;;4850006;29;20453;-76
2023/12/20 01:26:47;;;;;;;3.63;1.42;;;4.30;99.90;;;;;;4841592;29;20077;-77
2023/12/20 01:29:14;;;;;;;7.07;1.90;;;4.30;99.90;;;;;;4845563;29;20045;-77
2023/12/20 01:31:40;;;;;;;13.27;2.38;;;4.20;99.90;;;;;;4849037;29;20188;-78
2023/12/20 01:34:06;;;;;;;8.82;1.75;;;4.20;99.90;;;;;;4845980;29;20030;-77
2023/12/20 01:36:31;;;;;;;9.27;2.00;;;4.30;99.90;;;;;;4842522;29;20036;-77
2023/12/20 01:38:57;;;;;;;7.18;2.08;;;4.30;99.90;;;;;;4850729;29;20399;-78
2023/12/20 01:41:23;;;;;;;7.82;2.10;;;4.30;99.90;;;;;;4847773;29;20263;-78
2023/12/20 01:43:48;;;;;;;9.15;1.80;;;4.30;99.90;;;;;;4847209;29;20034;-78
2023/12/20 01:46:15;;;;;;;7.95;2.30;;;4.30;99.90;;;;;;4851838;29;20037;-78
2023/12/20 01:48:41;;;;;;;7.47;2.33;;;4.30;99.90;;;;;;4842058;29;20125;-78
2023/12/20 01:51:06;;;;;;;11.02;2.97;;;4.30;99.90;;;;;;4845981;29;20116;-78
2023/12/20 01:53:32;;;;;;;13.27;2.10;;;4.30;99.90;;;;;;4848893;29;20045;-78
2023/12/20 01:56:00;;;;;;;8.05;2.10;;;4.30;99.90;;;;;;4840280;29;20072;-78
2023/12/20 01:58:26;;;;;;;7.30;1.88;;;4.20;99.90;;;;;;4845070;29;20037;-78
2023/12/20 02:00:52;;;;;;;9.43;2.05;;;4.10;99.90;;;;;;4844148;29;20735;-78
2023/12/20 02:03:18;;;;;;;11.43;1.67;;;4.10;99.90;;;;;;4848447;29;20038;-78
2023/12/20 02:05:45;;;;;;;5.82;1.60;;;4.20;99.90;;;;;;4842203;29;20097;-77
2023/12/20 02:08:11;;;;;;;7.72;1.50;;;4.10;99.90;;;;;;4846973;29;20030;-76
2023/12/20 02:10:37;;;;;;;4.40;1.60;;;4.10;99.90;;;;;;4779957;29;2131517;-76
2023/12/20 02:13:04;;;;;;;6.82;1.48;;;4.00;99.90;;;;;;4842544;29;20029;-75
2023/12/20 02:15:29;;;;;;;9.55;2.10;;;4.00;99.90;;;;;;4846003;29;20118;-78
2023/12/20 02:17:55;;;;;;;8.20;2.00;;;4.00;99.90;;;;;;4848520;29;20473;-77
2023/12/20 02:20:21;;;;;;;9.45;2.00;;;4.00;99.90;;;;;;4845326;29;20450;-76
2023/12/20 02:22:47;;;;;;;9.02;2.80;;;4.00;99.90;;;;;;4848464;29;20034;-76
2023/12/20 02:25:12;;;;;;;7.53;1.50;;;4.00;99.90;;;;;;4846570;29;20105;-76
2023/12/20 02:27:39;;;;;;;7.65;1.70;;;4.00;99.90;;;;;;4848565;29;20410;-76
2023/12/20 02:30:05;;;;;;;9.90;2.00;;;4.00;99.90;;;;;;4846375;29;20026;-77
2023/12/20 02:32:31;;;;;;;9.30;1.77;;;4.00;99.90;;;;;;4849848;29;20034;-77
2023/12/20 02:34:58;;;;;;;13.20;3.78;;;4.00;99.90;;;;;;4846874;29;20041;-76
2023/12/20 02:37:23;;;;;;;5.68;1.80;;;3.90;99.90;;;;;;4845440;29;20367;-77
2023/12/20 02:39:49;;;;;;;10.10;1.63;;;4.10;99.90;;;;;;4845050;29;20037;-77
2023/12/20 02:42:14;;;;;;;8.90;1.55;;;4.10;99.90;;;;;;4844634;29;20068;-77
2023/12/20 02:44:40;;;;;;;7.18;1.55;;;4.10;99.90;;;;;;4842104;29;20041;-78
2023/12/20 02:47:06;;;;;;;10.27;1.92;;;4.00;99.90;;;;;;4841882;29;20050;-77
2023/12/20 02:49:31;;;;;;;11.60;2.25;;;4.10;99.90;;;;;;4842763;29;20040;-77
2023/12/20 02:51:57;;;;;;;10.70;2.13;;;4.10;99.90;;;;;;4843774;29;20029;-77
2023/12/20 02:54:22;;;;;;;11.55;1.90;;;4.10;99.90;;;;;;4843185;29;20241;-76
2023/12/20 02:56:48;;;;;;;8.10;1.85;;;4.20;99.90;;;;;;4847930;29;20038;-77
2023/12/20 02:59:14;;;;;;;10.25;2.83;;;4.10;99.90;;;;;;4844690;29;20099;-77
2023/12/20 03:01:44;;;;;;;7.75;1.60;;;4.10;99.90;;;;;;4846080;29;20078;-77
2023/12/20 03:04:10;;;;;;;12.70;2.22;;;4.10;99.90;;;;;;4839621;29;20026;-77
2023/12/20 03:06:36;;;;;;;5.55;1.67;;;4.10;99.90;;;;;;4839319;29;20041;-77
2023/12/20 03:09:02;;;;;;;13.40;1.85;;;4.20;99.90;;;;;;4846803;29;20026;-76
2023/12/20 03:11:28;;;;;;;11.73;1.88;;;4.20;99.90;;;;;;4845295;29;20034;-77
2023/12/20 03:13:54;;;;;;;9.73;1.60;;;4.20;99.90;;;;;;4845174;29;20037;-77
2023/12/20 03:16:20;;;;;;;7.80;1.92;;;4.30;99.90;;;;;;4844111;29;20034;-77
2023/12/20 03:18:46;;;;;;;10.95;2.47;;;4.30;99.90;;;;;;4845911;29;20085;-76
2023/12/20 03:21:11;;;;;;;11.05;2.13;;;4.30;99.90;;;;;;4844327;29;20540;-77
2023/12/20 03:23:37;;;;;;;9.80;1.95;;;4.40;99.90;;;;;;4844281;29;20132;-76
2023/12/20 03:26:03;;;;;;;11.45;2.15;;;4.30;99.90;;;;;;4844626;29;20034;-76
2023/12/20 03:28:29;;;;;;;9.00;1.98;;;4.30;99.90;;;;;;4844084;29;20041;-77
2023/12/20 03:30:55;;;;;;;8.45;2.25;;;4.30;99.90;;;;;;4846864;29;20038;-76
2023/12/20 03:33:21;;;;;;;14.60;2.05;;;4.30;99.90;;;;;;4845552;29;20098;-76
2023/12/20 03:35:46;;;;;;;15.38;2.00;;;4.40;99.90;;;;;;4844105;29;20069;-79
2023/12/20 03:38:12;;;;;;;13.40;1.80;;;4.50;99.90;;;;;;4847219;29;20044;-78
2023/12/20 03:40:38;;;;;;;17.48;2.17;;;4.50;99.90;;;;;;4840236;29;20195;-77
2023/12/20 03:43:03;;;;;;;9.00;2.05;;;4.60;99.90;;;;;;4842168;29;20420;-77
2023/12/20 03:45:29;;;;;;;6.07;1.70;;;4.60;99.90;;;;;;4847108;29;20925;-75
2023/12/20 03:47:56;;;;;;;12.50;1.65;;;4.60;99.90;;;;;;4843598;29;20153;-78
2023/12/20 03:50:23;;;;;;;8.75;1.80;;;4.60;99.90;;;;;;4845345;29;20034;-78
2023/12/20 03:52:49;;;;;;;8.80;1.90;;;4.60;99.90;;;;;;4843612;29;20491;-78
2023/12/20 03:55:15;;;;;;;9.60;1.70;;;4.50;99.90;;;;;;4848457;29;20049;-79
2023/12/20 03:57:41;;;;;;;7.10;1.90;;;4.60;99.90;;;;;;4854631;29;20052;-78
2023/12/20 04:00:10;;;;;;;9.25;2.08;;;4.60;99.90;;;;;;4849126;29;20041;-78
2023/12/20 04:02:36;;;;;;;13.85;2.28;;;4.60;99.90;;;;;;4844043;29;20029;-78
2023/12/20 04:05:02;;;;;;;10.70;2.28;;;4.70;99.90;;;;;;4846043;29;20029;-78
2023/12/20 04:07:27;;;;;;;14.48;2.58;;;4.50;99.90;;;;;;4840634;29;20048;-77
2023/12/20 04:09:53;;;;;;;15.75;2.33;;;4.60;99.90;;;;;;4851501;29;20109;-78
2023/12/20 04:12:19;;;;;;;12.02;1.90;;;4.60;99.90;;;;;;4844949;29;20117;-77
2023/12/20 04:14:44;;;;;;;9.07;1.63;;;4.60;99.90;;;;;;4848070;29;20029;-77
2023/12/20 04:17:10;;;;;;;9.95;1.63;;;4.70;99.90;;;;;;4848224;29;20499;-78
2023/12/20 04:19:35;;;;;;;13.40;3.25;;;4.60;99.90;;;;;;4842529;29;20045;-77
2023/12/20 04:22:01;;;;;;;11.80;2.35;;;4.70;99.90;;;;;;4848342;29;20538;-77
2023/12/20 04:24:27;;;;;;;13.57;2.20;;;4.80;99.90;;;;;;4845611;29;20461;-77
2023/12/20 04:26:52;;;;;;;11.38;1.90;;;4.70;99.90;;;;;;4850909;29;20066;-79
2023/12/20 04:29:18;;;;;;;8.10;1.60;;;4.70;99.90;;;;;;4848404;29;20539;-79
2023/12/20 04:31:43;;;;;;;14.10;2.72;;;4.70;99.90;;;;;;4844780;29;20037;-75
2023/12/20 04:34:09;;;;;;;8.82;2.00;;;4.70;99.90;;;;;;4840203;29;20038;-79
2023/12/20 04:36:35;;;;;;;10.40;1.98;;;4.70;99.90;;;;;;4840759;29;20069;-76
2023/12/20 04:39:01;;;;;;;7.10;1.90;;;4.70;99.90;;;;;;4844719;29;20046;-78
2023/12/20 04:41:27;;;;;;;15.35;2.65;;;4.70;99.90;;;;;;4848035;29;20041;-78
2023/12/20 04:43:53;;;;;;;8.27;1.83;;;4.80;99.90;;;;;;4848900;29;20085;-78
2023/12/20 04:46:18;;;;;;;10.93;2.10;;;4.70;99.90;;;;;;4845135;29;20451;-78
2023/12/20 04:48:44;;;;;;;7.50;1.90;;;4.70;99.90;;;;;;4846272;29;20030;-78
2023/12/20 04:51:10;;;;;;;9.02;2.22;;;4.70;99.90;;;;;;4849604;29;20021;-77
2023/12/20 04:53:35;;;;;;;9.40;2.10;;;4.70;99.90;;;;;;4844924;29;20426;-78
2023/12/20 04:56:01;;;;;;;13.02;2.78;;;4.70;99.90;;;;;;4848743;29;20089;-78
2023/12/20 04:58:26;;;;;;;11.27;2.13;;;4.60;99.90;;;;;;4847488;29;20041;-77
2023/12/20 05:00:52;;;;;;;7.85;2.10;;;4.60;99.90;;;;;;4844499;29;20041;-78
2023/12/20 05:03:18;;;;;;;15.93;2.08;;;4.60;99.90;;;;;;4847664;29;20117;-78
2023/12/20 05:05:43;;;;;;;13.50;2.35;;;4.60;99.90;;;;;;4845321;29;20049;-77
2023/12/20 05:08:09;;;;;;;9.68;2.00;;;4.60;99.90;;;;;;4849896;29;20123;-78
2023/12/20 05:10:36;;;;;;;11.55;2.25;;;4.60;99.90;;;;;;4844805;29;20411;-78
2023/12/20 05:13:02;;;;;;;14.15;2.30;;;4.60;99.90;;;;;;4847832;29;20549;-78
2023/12/20 05:15:28;;;;;;;10.23;2.20;;;4.60;99.90;;;;;;4849017;29;20520;-78
2023/12/20 05:17:53;;;;;;;11.15;2.13;;;4.60;99.90;;;;;;4844029;29;20077;-78
2023/12/20 05:20:19;;;;;;;16.25;2.33;;;4.70;99.90;;;;;;4847150;29;20067;-78
2023/12/20 05:22:45;;;;;;;13.05;2.42;;;4.70;99.90;;;;;;4846494;29;20052;-77
2023/12/20 05:25:10;;;;;;;9.68;2.05;;;4.70;99.90;;;;;;4849330;29;20423;-77
2023/12/20 05:27:36;;;;;;;14.27;2.75;;;4.70;99.90;;;;;;4845032;29;20558;-77
2023/12/20 05:30:04;;;;;;;13.32;2.08;;;4.70;99.90;;;;;;4848467;29;20021;-76
2023/12/20 05:32:30;;;;;;;7.78;1.85;;;4.70;99.90;;;;;;4841945;29;20033;-77
2023/12/20 05:34:55;;;;;;;10.27;2.10;;;4.80;99.90;;;;;;4845891;29;20038;-76
2023/12/20 05:37:21;;;;;;;9.05;1.73;;;4.80;99.90;;;;;;4854491;29;20037;-77
2023/12/20 05:39:46;;;;;;;14.07;2.55;;;4.80;99.90;;;;;;4854256;29;20038;-77
2023/12/20 05:42:12;;;;;;;11.60;2.90;;;4.90;99.90;;;;;;4849209;29;20608;-76
2023/12/20 05:44:37;;;;;;;8.05;2.35;;;4.80;99.90;;;;;;4846474;29;20037;-77
2023/12/20 05:47:03;;;;;;;11.00;1.92;;;4.80;99.90;;;;;;4849842;29;20038;-77
2023/12/20 05:49:29;;;;;;;13.13;2.25;;;4.90;99.90;;;;;;4851883;29;20053;-77
2023/12/20 05:51:55;;;;;;;9.70;2.45;;;5.00;99.90;;;;;;4846555;29;20022;-77
2023/12/20 05:54:21;;;;;;;12.23;2.05;;;5.00;99.90;;;;;;4846746;29;20523;-76
2023/12/20 05:56:47;;;;;;;12.55;2.60;;;5.10;99.90;;;;;;4851363;29;20029;-77
2023/12/20 05:59:12;;;;;;;10.10;2.10;;;5.20;99.90;;;;;;4848969;29;20393;-77
2023/12/20 06:01:38;;;;;;;9.48;2.30;;;5.30;99.90;;;;;;4847310;29;20038;-76
2023/12/20 06:04:04;;;;;;;10.80;2.42;;;5.50;99.90;;;;;;4852552;29;20026;-76
2023/12/20 06:06:30;;;;;;;12.38;2.63;;;5.60;99.90;;;;;;4844360;29;20510;-77
2023/12/20 06:08:56;;;;;;;12.73;2.65;;;5.60;99.90;;;;;;4849514;29;20483;-76
2023/12/20 06:11:21;;;;;;;7.55;2.00;;;5.70;99.90;;;;;;4846871;29;20034;-76
2023/12/20 06:13:48;;;;;;;13.38;2.15;;;5.70;99.90;;;;;;4850282;29;20053;-76
2023/12/20 06:16:14;;;;;;;12.40;3.03;;;5.60;99.90;;;;;;4843019;29;20042;-77
2023/12/20 06:18:40;;;;;;;13.38;1.77;;;5.50;99.90;;;;;;4850662;29;20037;-76
2023/12/20 06:21:07;;;;;;;21.13;3.60;;;5.40;99.90;;;;;;4847756;29;20415;-77
2023/12/20 06:23:33;;;;;;;5.85;1.77;;;5.30;99.90;;;;;;4845039;29;20107;-76
2023/12/20 06:25:58;;;;;;;14.23;2.05;;;5.30;99.90;;;;;;4850180;29;20045;-76
2023/12/20 06:28:24;;;;;;;10.27;2.90;;;5.20;99.90;;;;;;4847119;29;20388;-77
2023/12/20 06:30:52;;;;;;;12.57;2.05;;;5.10;99.90;;;;;;4847830;29;20113;-77
2023/12/20 06:33:18;;;;;;;12.80;3.55;;;5.10;99.90;;;;;;4844432;29;20121;-77
2023/12/20 06:35:44;;;;;;;8.45;2.42;;;5.10;99.90;;;;;;4848411;29;20030;-77
2023/12/20 06:38:09;;;;;;;10.00;2.22;;;5.00;99.90;;;;;;4844939;29;20126;-77
2023/12/20 06:40:35;;;;;;;14.80;3.03;;;5.10;99.90;;;;;;4841283;29;20057;-77
2023/12/20 06:43:01;;;;;;;12.90;2.60;;;5.20;99.90;;;;;;4846215;29;20042;-78
2023/12/20 06:45:26;;;;;;;9.25;2.85;;;5.20;99.90;;;;;;4845821;29;20037;-78
2023/12/20 06:47:52;;;;;;;16.35;2.80;;;5.20;99.90;;;;;;4849339;29;20144;-76
2023/12/20 06:50:17;;;;;;;14.45;2.88;;;5.20;99.90;;;;;;4848832;29;20032;-78
2023/12/20 06:52:43;;;;;;;7.45;2.22;;;5.20;99.90;;;;;;4845191;29;20041;-78
2023/12/20 06:55:09;;;;;;;15.48;2.50;;;5.10;99.90;;;;;;4846534;29;20038;-77
2023/12/20 06:57:36;;;;;;;17.58;2.60;;;5.10;99.90;;;;;;4845371;29;20038;-77
2023/12/20 07:00:02;;;;;;;14.25;2.05;;;5.20;99.90;;;;;;4842461;29;20034;-77
2023/12/20 07:02:30;;;;;;;11.18;1.88;;;5.20;99.90;;;;;;4843629;29;20038;-77
2023/12/20 07:04:56;;;;;;;14.30;2.20;;;5.20;99.90;;;;;;4841063;29;20034;-76
2023/12/20 07:07:23;;;;;;;10.43;2.47;;;5.20;99.90;;;;;;4848511;29;20040;-77
2023/12/20 07:09:48;;;;;;;11.50;2.10;;;5.30;99.90;;;;;;4843586;29;20046;-76
2023/12/20 07:12:14;;;;;;;11.13;2.05;;;5.20;99.90;;;;;;4842697;29;20052;-76
2023/12/20 07:14:40;;;;;;;9.63;2.28;;;5.30;99.90;;;;;;4843079;29;20056;-76
2023/12/20 07:17:11;;;;;;;13.85;2.35;;;5.40;99.90;;;;;;4841503;29;20037;-76
2023/12/20 07:19:37;;;;;;;17.95;2.05;;;5.50;99.90;;;;;;4842250;29;20505;-76
2023/12/20 07:22:04;;;;;;;13.30;2.67;;;5.60;99.90;;;;;;4847553;29;20041;-76
2023/12/20 07:24:29;;;;;;;12.43;2.20;;;5.60;99.90;;;;;;4842081;29;20029;-76
2023/12/20 07:26:55;;;;;;;13.95;3.03;;;5.60;99.90;;;;;;4847282;29;20045;-76
2023/12/20 07:29:20;;;;;;;11.63;2.50;;;5.50;99.90;;;;;;4840280;29;20596;-76
2023/12/20 07:31:46;;;;;;;11.20;2.15;;;5.50;99.90;;;;;;4843621;29;20029;-79
2023/12/20 07:34:12;;;;;;;12.65;2.60;;;5.50;99.90;;;;;;4847200;29;20061;-76
2023/12/20 07:36:37;;;;;;;9.77;2.00;;;5.60;99.90;;;;;;4844273;29;20060;-76
2023/12/20 07:39:03;;;;;;;12.88;2.28;;;5.60;99.90;;;;;;4839300;29;20034;-78
2023/12/20 07:41:29;;;;;;;10.15;2.50;;;5.70;99.90;;;;;;4839640;29;20038;-78
2023/12/20 07:43:55;;;;;;;13.23;2.30;;;5.70;99.90;;;;;;4840945;29;20487;-76
2023/12/20 07:46:23;;;;;;;17.55;2.40;;;5.70;99.90;;;;;;4845562;29;20116;-75
2023/12/20 07:48:49;;;;;;;13.70;2.85;;;5.80;99.90;;;;;;4846616;29;20033;-80
2023/12/20 07:51:14;;;;;;;16.10;2.97;;;5.80;99.90;;;;;;4846503;29;20056;-76
2023/12/20 07:53:40;;;;;;;8.52;2.00;;;5.90;99.90;;;;;;4844937;29;20129;-78
2023/12/20 07:56:21;;;;;;;13.88;2.60;;;5.90;99.90;;;;;;4846747;29;20156;-79
2023/12/20 07:58:48;;;;;;;14.70;2.35;;;5.90;99.90;;;;;;4839672;29;20034;-78
2023/12/20 08:01:15;;;;;;;11.70;2.35;;;5.90;99.90;;;;;;4836636;29;20032;-79
2023/12/20 08:03:41;;;;;;;10.68;2.70;;;5.90;99.90;;;;;;4839804;29;20074;-78
2023/12/20 08:06:06;;;;;;;15.27;2.53;;;5.90;99.90;;;;;;4838963;29;20038;-77
2023/12/20 08:08:32;;;;;;;18.02;2.00;;;5.90;99.90;;;;;;4845469;29;20391;-76
2023/12/20 08:10:59;;;;;;;10.70;2.25;;;5.80;99.90;;;;;;4844222;29;20061;-76
2023/12/20 08:13:26;;;;;;;13.32;2.70;;;5.90;99.90;;;;;;4842064;29;20034;-78
2023/12/20 08:15:52;;;;;;;15.65;2.28;;;5.90;99.90;;;;;;4839653;29;20123;-78
2023/12/20 08:18:18;;;;;;;19.38;3.33;;;5.90;99.90;;;;;;4846161;29;20025;-78
2023/12/20 08:20:43;;;;;;;14.38;2.05;;;6.00;99.90;;;;;;4845146;29;20390;-77
2023/12/20 08:23:09;;;;;;;10.50;2.83;;;6.00;99.90;;;;;;4844122;29;20455;-78
2023/12/20 08:25:34;;;;;;;16.10;3.35;;;6.10;99.90;;;;;;4844691;29;20037;-76
2023/12/20 08:28:02;;;;;;;11.93;2.10;;;6.10;99.90;;;;;;4842189;29;20494;-76
2023/12/20 08:30:29;;;;;;;11.85;2.00;;;6.20;99.90;;;;;;4842500;29;20530;-76
2023/12/20 08:32:55;;;;;;;12.73;1.85;;;6.20;99.90;;;;;;4843035;29;20038;-77
2023/12/20 08:35:20;;;;;;;11.73;2.78;;;6.20;99.90;;;;;;4844022;29;20046;-78
2023/12/20 08:37:46;;;;;;;10.77;2.13;;;6.30;99.90;;;;;;4840183;29;20033;-78
2023/12/20 08:40:12;;;;;;;11.88;2.63;;;6.40;99.90;;;;;;4842727;29;20064;-78
2023/12/20 08:42:37;;;;;;;10.50;2.13;;;6.40;99.90;;;;;;4839478;29;20513;-77
2023/12/20 08:45:04;;;;;;;13.65;2.15;;;6.40;99.90;;;;;;4841473;29;20042;-77
2023/12/20 08:47:30;;;;;;;13.70;2.30;;;6.50;99.90;;;;;;4833531;29;20042;-77
2023/12/20 08:49:57;;;;;;;11.90;2.30;;;6.50;99.90;;;;;;4844599;29;20436;-78
2023/12/20 08:52:23;;;;;;;13.27;2.40;;;6.60;99.90;;;;;;4812114;29;20278;-77
2023/12/20 08:54:51;;;;;;;9.60;1.83;;;6.50;99.90;;;;;;4839177;29;20410;-79
2023/12/20 08:57:22;;;;;;;14.02;2.30;;;6.60;99.90;;;;;;4839575;29;20034;-77
2023/12/20 08:59:48;;;;;;;12.55;2.63;;;6.70;99.90;;;;;;4842762;29;20026;-76
2023/12/20 09:02:14;;;;;;;14.77;2.58;;;6.70;99.90;;;;;;4840495;29;20144;-77
2023/12/20 09:04:40;;;;;;;13.32;2.38;;;6.70;99.90;;;;;;4835380;29;20305;-77
2023/12/20 09:07:05;;;;;;;14.95;2.65;;;6.80;99.90;;;;;;4841114;29;20029;-76
2023/12/20 09:09:32;;;;;;;16.55;2.83;;;6.80;99.90;;;;;;4842820;29;20050;-77
2023/12/20 09:11:58;;;;;;;9.10;3.00;;;6.90;99.90;;;;;;4845674;29;20036;-77
2023/12/20 09:14:23;;;;;;;9.02;1.92;;;6.90;99.90;;;;;;4845737;29;20026;-77
2023/12/20 09:16:51;;;;;;;10.20;2.20;;;7.10;99.90;;;;;;4842144;29;20034;-77
2023/12/20 09:19:17;;;;;;;12.30;2.33;;;7.60;99.90;;;;;;4842812;29;20192;-76
2023/12/20 09:21:43;;;;;;;8.07;1.75;;;8.20;99.90;;;;;;4835876;29;20040;-78
2023/12/20 09:24:08;;;;;;;7.15;2.10;;;8.40;99.90;;;;;;4840049;29;20037;-78
2023/12/20 09:26:34;;;;;;;11.93;1.73;;;8.60;99.90;;;;;;4838000;29;20026;-79
2023/12/20 09:29:00;;;;;;;9.02;1.60;;;8.70;99.90;;;;;;4837169;29;20494;-78
2023/12/20 09:31:25;;;;;;;9.20;2.03;;;8.80;99.90;;;;;;4839461;29;20100;-79
2023/12/20 09:33:51;;;;;;;10.50;1.75;;;8.80;99.90;;;;;;4840011;29;20037;-79
2023/12/20 09:36:17;;;;;;;12.30;1.60;;;9.50;99.90;;;;;;4838829;29;20030;-80
2023/12/20 09:38:42;;;;;;;9.93;1.67;;;10.50;99.90;;;;;;4839485;29;20049;-82
2023/12/20 09:41:08;;;;;;;15.43;1.80;;;11.10;99.90;;;;;;4839856;29;20061;-81
2023/12/20 09:43:37;;;;;;;6.38;1.40;;;10.90;99.90;;;;;;4844127;29;20046;-80
2023/12/20 09:46:05;;;;;;;12.20;2.50;;;10.50;99.90;;;;;;4841707;29;20130;-81
2023/12/20 09:48:32;;;;;;;11.77;1.77;;;9.80;99.90;;;;;;4841891;29;20041;-80
2023/12/20 09:50:58;;;;;;;10.60;1.77;;;9.30;99.90;;;;;;4843620;29;20030;-80
2023/12/20 09:53:29;;;;;;;10.88;2.13;;;9.00;99.90;;;;;;4823810;29;20038;-79
2023/12/20 09:56:00;;;;;;;6.82;1.63;;;9.00;99.90;;;;;;4839915;29;20427;-79
2023/12/20 09:58:26;;;;;;;16.33;2.17;;;8.90;99.90;;;;;;4841504;29;20273;-79
2023/12/20 10:00:53;;;;;;;10.07;2.67;;;8.90;99.90;;;;;;4840656;29;20421;-81
2023/12/20 10:03:24;;;;;;;13.80;2.60;;;8.90;99.90;;;;;;4839713;29;20045;-77
2023/12/20 10:05:52;;;;;;;14.48;2.00;;;8.80;99.90;;;;;;4838846;29;20111;-77
2023/12/20 10:08:21;;;;;;;8.77;1.80;;;8.70;99.90;;;;;;4839917;29;20040;-78
2023/12/20 10:10:46;;;;;;;8.45;2.38;;;8.70;99.90;;;;;;4840447;29;20075;-79
2023/12/20 10:13:13;;;;;;;8.02;1.75;;;8.60;99.90;;;;;;4840014;29;20367;-78
2023/12/20 10:15:39;;;;;;;9.30;2.35;;;8.60;99.90;;;;;;4842250;29;20037;-77
2023/12/20 10:18:05;;;;;;;7.30;1.92;;;8.60;99.90;;;;;;4843106;29;20053;-75
2023/12/20 10:20:31;;;;;;;12.95;1.88;;;8.60;99.90;;;;;;4840041;29;20042;-77
2023/12/20 10:22:57;;;;;;;15.13;3.00;;;8.60;99.90;;;;;;4841419;29;20030;-76
2023/12/20 10:25:24;;;;;;;8.00;1.88;;;8.50;99.90;;;;;;4847594;29;20053;-80
2023/12/20 10:28:08;;;;;;;9.40;1.90;;;8.50;99.90;;;;;;4841228;29;20033;-79
2023/12/20 10:30:33;;;;;;;11.23;2.28;;;8.50;99.90;;;;;;4844816;29;20543;-79
2023/12/20 10:32:59;;;;;;;13.20;2.22;;;8.50;99.90;;;;;;4840971;29;20116;-83
2023/12/20 10:35:25;;;;;;;9.90;1.70;;;8.50;99.90;;;;;;4847996;29;20106;-78
2023/12/20 10:37:57;;;;;;;12.43;1.85;;;8.60;99.90;;;;;;4844032;29;20029;-80
2023/12/20 10:40:22;;;;;;;13.63;2.67;;;8.50;99.90;;;;;;4847843;29;20038;-81
2023/12/20 10:42:51;;;;;;;7.93;2.08;;;8.50;99.90;;;;;;4841068;29;20060;-83
2023/12/20 10:45:17;;;;;;;8.30;2.28;;;8.50;99.90;;;;;;4849642;29;20120;-83
2023/12/20 10:47:46;;;;;;;11.40;2.20;;;8.60;99.90;;;;;;4844296;29;20092;-86
2023/12/20 10:50:12;;;;;;;9.25;2.50;;;8.60;99.90;;;;;;4843565;29;20032;-80
2023/12/20 10:52:38;;;;;;;8.85;2.20;;;8.70;99.90;;;;;;4842804;29;20041;-80
2023/12/20 10:55:05;;;;;;;15.82;3.20;;;8.80;99.90;;;;;;4843285;29;20030;-81
2023/12/20 10:57:30;;;;;;;14.73;2.20;;;8.80;99.90;;;;;;4844582;29;20513;-82
2023/12/20 11:00:05;;;;;;;13.55;3.33;;;8.90;99.90;;;;;;4843930;29;20045;-81
2023/12/20 11:02:33;;;;;;;10.60;2.92;;;8.90;99.90;;;;;;4846083;29;20041;-84
2023/12/20 11:05:01;;;;;;;7.07;1.92;;;9.00;99.90;;;;;;4842697;29;20045;-81
2023/12/20 11:07:39;;;;;;;5.63;1.75;;;9.00;99.90;;;;;;4843078;29;20459;-80
2023/12/20 11:10:16;;;;;;;10.63;2.10;;;9.10;99.90;;;;;;4850015;29;20404;-84
2023/12/20 11:12:57;;;;;;;8.27;2.10;;;9.20;99.90;;;;;;4827800;29;20033;-79
2023/12/20 11:15:22;;;;;;;11.00;2.30;;;9.20;99.90;;;;;;4841864;29;20113;-79
2023/12/20 11:17:56;;;;;;;17.60;3.47;;;9.20;99.90;;;;;;4840805;29;20041;-82
2023/12/20 11:20:23;;;;;;;9.83;2.90;;;9.20;99.90;;;;;;4838860;29;20042;-82
2023/12/20 11:22:53;;;;;;;10.60;2.78;;;9.20;99.90;;;;;;4842163;29;21096;-85
2023/12/20 11:25:19;;;;;;;15.15;2.60;;;9.30;99.90;;;;;;4837633;29;21104;-79
2023/12/20 11:28:10;;;;;;;16.88;3.95;;;9.20;99.90;;;;;;4830179;29;20121;-79
2023/12/20 11:30:55;;;;;;;13.93;2.38;;;9.30;99.90;;;;;;4837801;29;20030;-78
2023/12/20 11:33:23;;;;;;;10.88;2.17;;;9.30;99.90;;;;;;4839688;29;20076;-77
2023/12/20 11:35:49;;;;;;;8.77;2.45;;;9.20;99.90;;;;;;4840665;29;20347;-77
2023/12/20 11:38:15;;;;;;;12.82;2.45;;;9.20;99.90;;;;;;4844391;29;20308;-77
2023/12/20 11:40:43;;;;;;;13.25;1.73;;;9.20;99.90;;;;;;4840380;29;20044;-80
2023/12/20 11:43:09;;;;;;;17.33;2.78;;;9.30;99.90;;;;;;4842669;29;20108;-77
2023/12/20 11:45:35;;;;;;;13.13;2.50;;;9.30;99.90;;;;;;4843066;29;20120;-79
2023/12/20 11:48:02;;;;;;;10.18;2.50;;;9.30;99.90;;;;;;4838113;29;20069;-80
2023/12/20 11:50:30;;;;;;;11.30;2.90;;;9.30;99.90;;;;;;4841934;29;20202;-79
2023/12/20 11:52:56;;;;;;;9.00;1.95;;;9.30;99.90;;;;;;4842502;29;20089;-80
2023/12/20 11:55:24;;;;;;;14.40;2.10;;;9.30;99.90;;;;;;4840649;29;20030;-78
2023/12/20 11:57:51;;;;;;;11.43;2.22;;;9.30;99.90;;;;;;4843159;29;20038;-83
2023/12/20 12:00:17;;;;;;;6.00;1.90;;;9.30;99.90;;;;;;4846325;29;20428;-86
2023/12/20 12:02:43;;;;;;;9.32;1.90;;;9.40;99.90;;;;;;4839397;29;20042;-84
2023/12/20 12:05:09;;;;;;;8.98;1.83;;;9.50;99.90;;;;;;4838649;29;20057;-82
2023/12/20 12:07:35;;;;;;;6.13;1.85;;;9.60;99.90;;;;;;4837896;29;20779;-88
2023/12/20 12:10:01;;;;;;;7.97;1.95;;;9.60;99.90;;;;;;4836207;29;20049;-85
2023/12/20 12:12:27;;;;;;;10.00;2.42;;;9.70;99.90;;;;;;4841113;29;20030;-83
2023/12/20 12:14:54;;;;;;;14.82;2.03;;;9.80;99.90;;;;;;4838432;29;20495;-82
2023/12/20 12:17:20;;;;;;;7.70;1.90;;;10.00;99.90;;;;;;4839359;29;20041;-83
2023/12/20 12:19:45;;;;;;;9.23;2.20;;;10.70;99.90;;;;;;4840514;29;20042;-83
2023/12/20 12:22:14;;;;;;;10.32;2.28;;;11.40;99.90;;;;;;4841887;29;20525;-82
2023/12/20 12:24:41;;;;;;;5.55;1.58;;;11.40;99.90;;;;;;4841585;29;20033;-82
2023/12/20 12:27:08;;;;;;;7.07;1.92;;;11.30;99.90;;;;;;4843277;29;20037;-82
2023/12/20 12:29:34;;;;;;;9.13;1.92;;;11.00;99.90;;;;;;4835462;29;20052;-82
2023/12/20 12:32:00;;;;;;;5.05;1.38;;;10.80;99.90;;;;;;4840983;29;20518;-82
2023/12/20 12:34:28;;;;;;;5.07;1.17;;;11.00;99.90;;;;;;4839299;29;20403;-83
2023/12/20 12:36:54;;;;;;;6.57;1.20;;;12.60;99.90;;;;;;4840429;29;20041;-83
2023/12/20 12:39:20;;;;;;;6.00;1.17;;;13.80;99.90;;;;;;4840180;29;20262;-83
2023/12/20 12:41:45;;;;;;;3.47;1.02;;;14.60;99.90;;;;;;4839892;29;20042;-83
2023/12/20 12:44:11;;;;;;;3.10;1.00;;;14.90;99.90;;;;;;4841213;29;20125;-83
2023/12/20 12:46:37;;;;;;;3.75;0.98;;;15.60;89.00;;;;;;4844392;29;20045;-83